Terminal Aerodrome Forecast
Issued by NWS

Home | Current Version | Previous Version | Text Only | Print | Product List | Glossary On
Versions: 1 2 3 4 5 6 7 8 9 10 11 12 13 14 15 16 17 18 19 20 21
000
FTUS43 KDMX 171915 AAC
TAFOTM
TAF AMD
KOTM 171915Z 1719/1818 29013G23KT P6SM SCT023 BKN035
     FM172000 27011KT P6SM SCT150
     FM180300 VRB05KT P6SM FEW200
     FM181300 16010KT P6SM SCT240 WS007/19015KT
     FM181500 17015G23KT P6SM FEW250 WS020/19045KT=

USA.gov is the U.S. government's official web portal to all federal, state and local government web resources and services.